createdAt,value
2022-11-30T00:00:05.954Z,99995.90
2022-11-30T00:00:16.018Z,99993.33
2022-11-30T00:00:25.985Z,99991.41
2022-11-30T00:00:36.041Z,99990.58
2022-11-30T00:00:46.037Z,99991.35
2022-11-30T00:00:56.031Z,99999.34
2022-11-30T00:01:06.023Z,99998.67
2022-11-30T00:01:16.039Z,99990.91
2022-11-30T00:01:25.962Z,99991.47
2022-11-30T00:01:35.965Z,99997.27
2022-11-30T00:01:46.075Z,99992.12
2022-11-30T00:01:56.078Z,99996.94
2022-11-30T00:02:06.044Z,99996.70
2022-11-30T00:02:16.200Z,99990.91
2022-11-30T00:02:26.214Z,99993.05
2022-11-30T00:02:36.350Z,99993.55
2022-11-30T00:02:46.045Z,99991.75
2022-11-30T00:02:56.149Z,99996.68
2022-11-30T00:03:06.215Z,99993.23
2022-11-30T00:03:16.194Z,99996.07
2022-11-30T00:03:26.309Z,99995.25
2022-11-30T00:03:36.037Z,99995.67
2022-11-30T00:03:46.010Z,99997.81
2022-11-30T00:03:55.960Z,99995.30
2022-11-30T00:04:06.069Z,99994.22
2022-11-30T00:04:15.987Z,99996.07
2022-11-30T00:04:25.989Z,99991.42
2022-11-30T00:04:36.040Z,99994.22
2022-11-30T00:04:46.364Z,99996.00
2022-11-30T00:04:56.004Z,99994.55
2022-11-30T00:05:06.139Z,99993.28
2022-11-30T00:05:15.954Z,99990.81
2022-11-30T00:05:25.960Z,99995.80
2022-11-30T00:05:36.005Z,99995.48
2022-11-30T00:05:46.059Z,99995.33
2022-11-30T00:05:56.025Z,99992.47
2022-11-30T00:06:05.978Z,99994.61
2022-11-30T00:06:15.952Z,99995.09
2022-11-30T00:06:25.975Z,99998.22
2022-11-30T00:06:36.052Z,99995.17
2022-11-30T00:06:46.094Z,99995.73
2022-11-30T00:06:56.037Z,99991.44
2022-11-30T00:07:05.948Z,99987.94
2022-11-30T00:07:16.029Z,99999.93
2022-11-30T00:07:26.042Z,99995.23
2022-11-30T00:07:36.032Z,99990.74
2022-11-30T00:07:46.138Z,99996.06
2022-11-30T00:07:56.117Z,99998.62
2022-11-30T00:08:06.055Z,99992.72
2022-11-30T00:08:16.027Z,99992.45
2022-11-30T00:08:25.964Z,99991.91
2022-11-30T00:08:35.992Z,99994.59
2022-11-30T00:08:45.971Z,99993.55
2022-11-30T00:08:56.057Z,99995.13
2022-11-30T00:09:06.085Z,99995.58
2022-11-30T00:09:16.032Z,99992.50
2022-11-30T00:09:25.986Z,99994.42
2022-11-30T00:09:36.045Z,99996.06
2022-11-30T00:09:45.971Z,99993.52
2022-11-30T00:09:56.052Z,99997.38
2022-11-30T00:10:06.087Z,99991.70
2022-11-30T00:10:15.993Z,99994.55
2022-11-30T00:10:26.053Z,99992.47
2022-11-30T00:10:36.039Z,99994.17
2022-11-30T00:10:45.983Z,99993.68
2022-11-30T00:10:56.022Z,99995.70
2022-11-30T00:11:06.081Z,99990.47
2022-11-30T00:11:15.951Z,99995.38
2022-11-30T00:11:26.069Z,99998.02
2022-11-30T00:11:36.010Z,99993.59
2022-11-30T00:11:46.013Z,99996.27
2022-11-30T00:11:55.987Z,99995.61
2022-11-30T00:12:05.993Z,99991.95
2022-11-30T00:12:16.073Z,99996.22
2022-11-30T00:12:25.985Z,99994.58
2022-11-30T00:12:36.079Z,99993.92
2022-11-30T00:12:46.055Z,99994.23
2022-11-30T00:12:55.956Z,99998.77
2022-11-30T00:13:05.990Z,99993.92
2022-11-30T00:13:16.072Z,99996.20
2022-11-30T00:13:25.971Z,99997.04
2022-11-30T00:13:36.050Z,100001.02
2022-11-30T00:13:46.015Z,99998.61
2022-11-30T00:13:55.979Z,100001.66
2022-11-30T00:14:06.069Z,100001.00
2022-11-30T00:14:15.966Z,99996.73
2022-11-30T00:14:26.026Z,99999.20
2022-11-30T00:14:36.001Z,99996.48
2022-11-30T00:14:46.406Z,99998.70
2022-11-30T00:14:56.028Z,100000.30
2022-11-30T00:15:05.980Z,99999.69
2022-11-30T00:15:16.076Z,100002.34
2022-11-30T00:15:26.054Z,100003.70
2022-11-30T00:15:36.076Z,100000.09
2022-11-30T00:15:46.032Z,100002.34
2022-11-30T00:15:56.077Z,100005.12
2022-11-30T00:16:06.060Z,100001.41
2022-11-30T00:16:16.138Z,100002.06
2022-11-30T00:16:26.083Z,99996.15
2022-11-30T00:16:36.020Z,99997.02
2022-11-30T00:16:46.148Z,99997.62
2022-11-30T00:16:56.061Z,100006.28
2022-11-30T00:17:06.053Z,100001.78
2022-11-30T00:17:16.081Z,100000.16
2022-11-30T00:17:26.034Z,99999.34
2022-11-30T00:17:36.010Z,100001.85
2022-11-30T00:17:46.081Z,100002.40
2022-11-30T00:17:56.037Z,99999.02
2022-11-30T00:18:06.096Z,99998.69
2022-11-30T00:18:15.959Z,100001.31
2022-11-30T00:18:25.968Z,100001.81
2022-11-30T00:18:36.044Z,100004.44
2022-11-30T00:18:45.963Z,100001.39
2022-11-30T00:18:56.003Z,99998.97
2022-11-30T00:19:06.024Z,99999.95
2022-11-30T00:19:16.064Z,100001.48
2022-11-30T00:19:26.084Z,100003.45
2022-11-30T00:19:35.982Z,100001.18
2022-11-30T00:19:45.958Z,100000.36
2022-11-30T00:19:55.994Z,99996.30
2022-11-30T00:20:06.052Z,100000.64
2022-11-30T00:20:16.048Z,100002.29
2022-11-30T00:20:26.502Z,100003.20
2022-11-30T00:20:35.976Z,100001.77
2022-11-30T00:20:46.022Z,100003.86
2022-11-30T00:20:56.087Z,100000.48
2022-11-30T00:21:05.984Z,99996.52
2022-11-30T00:21:16.058Z,100002.22
2022-11-30T00:21:25.990Z,100004.47
2022-11-30T00:21:36.000Z,100001.56
2022-11-30T00:21:46.084Z,100001.84
2022-11-30T00:21:56.075Z,99999.84
2022-11-30T00:22:06.010Z,99999.42
2022-11-30T00:22:16.045Z,99997.41
2022-11-30T00:22:26.017Z,99997.73
2022-11-30T00:22:36.010Z,99999.19
2022-11-30T00:22:45.977Z,99998.70
2022-11-30T00:22:56.012Z,100000.34
2022-11-30T00:23:06.023Z,99998.70
2022-11-30T00:23:16.007Z,99993.55
2022-11-30T00:23:26.088Z,99996.09
2022-11-30T00:23:36.060Z,99997.83
2022-11-30T00:23:45.989Z,99996.09
2022-11-30T00:23:56.001Z,99996.23
2022-11-30T00:24:05.973Z,99996.39
2022-11-30T00:24:16.029Z,99992.34
2022-11-30T00:24:25.955Z,99993.43
2022-11-30T00:24:36.006Z,99993.69
2022-11-30T00:24:46.290Z,99997.98
2022-11-30T00:24:55.991Z,99992.84
2022-11-30T00:25:05.989Z,99995.36
2022-11-30T00:25:16.015Z,99995.56
2022-11-30T00:25:25.978Z,99991.95
2022-11-30T00:25:36.040Z,99988.41
2022-11-30T00:25:45.991Z,99990.70
2022-11-30T00:25:55.982Z,99992.08
2022-11-30T00:26:06.075Z,99993.77
2022-11-30T00:26:16.003Z,99991.17
2022-11-30T00:26:26.077Z,99993.05
2022-11-30T00:26:35.969Z,99993.92
2022-11-30T00:26:45.959Z,99992.89
2022-11-30T00:26:55.986Z,99993.55
2022-11-30T00:27:06.070Z,99993.05
2022-11-30T00:27:16.034Z,99994.20
2022-11-30T00:27:26.077Z,99992.94
2022-11-30T00:27:35.952Z,99996.30
2022-11-30T00:27:46.063Z,99992.02
2022-11-30T00:27:55.969Z,99995.48
2022-11-30T00:28:05.991Z,99997.12
2022-11-30T00:28:16.072Z,99989.71
2022-11-30T00:28:26.059Z,99994.30
2022-11-30T00:28:36.036Z,99989.81
2022-11-30T00:28:45.987Z,99986.86
2022-11-30T00:28:56.073Z,99987.58
2022-11-30T00:29:06.033Z,99992.27
2022-11-30T00:29:16.079Z,99992.02
2022-11-30T00:29:25.981Z,99988.30
2022-11-30T00:29:35.977Z,99991.69
2022-11-30T00:29:45.989Z,99991.08
2022-11-30T00:29:56.042Z,99989.27
2022-11-30T00:30:06.002Z,99990.21
2022-11-30T00:30:16.067Z,99992.18
2022-11-30T00:30:26.096Z,99991.27
2022-11-30T00:30:36.046Z,99992.18
2022-11-30T00:30:46.061Z,99990.21
2022-11-30T00:30:56.074Z,99993.77
2022-11-30T00:31:06.061Z,99993.00
2022-11-30T00:31:16.195Z,99989.72
2022-11-30T00:31:26.078Z,99991.20
2022-11-30T00:31:35.952Z,99992.06
2022-11-30T00:31:45.972Z,99988.98
2022-11-30T00:31:56.064Z,99990.91
2022-11-30T00:32:06.078Z,99991.02
2022-11-30T00:32:15.977Z,99997.92
2022-11-30T00:32:26.046Z,99995.78
2022-11-30T00:32:35.952Z,99996.87
2022-11-30T00:32:45.951Z,99996.98
2022-11-30T00:32:55.974Z,99997.42
2022-11-30T00:33:06.090Z,99995.30
2022-11-30T00:33:16.085Z,99994.73
2022-11-30T00:33:26.045Z,99996.61
2022-11-30T00:33:36.093Z,99995.06
2022-11-30T00:33:45.990Z,99994.88
2022-11-30T00:33:56.009Z,99998.00
2022-11-30T00:34:06.028Z,99995.30
2022-11-30T00:34:16.016Z,99997.23
2022-11-30T00:34:25.962Z,99994.06
2022-11-30T00:34:35.985Z,99998.00
2022-11-30T00:34:46.382Z,99994.47
2022-11-30T00:34:55.994Z,99996.11
2022-11-30T00:35:06.025Z,99993.92
2022-11-30T00:35:16.021Z,100000.38
2022-11-30T00:35:26.074Z,99995.78
2022-11-30T00:35:36.042Z,99995.34
2022-11-30T00:35:46.037Z,99996.94
2022-11-30T00:35:55.967Z,99997.39
2022-11-30T00:36:05.983Z,99995.48
2022-11-30T00:36:16.071Z,99994.08
2022-11-30T00:36:26.037Z,99997.08
2022-11-30T00:36:35.983Z,99996.80
2022-11-30T00:36:45.998Z,99997.22
2022-11-30T00:36:55.990Z,99997.86
2022-11-30T00:37:06.013Z,99996.40
2022-11-30T00:37:15.963Z,99997.88
2022-11-30T00:37:26.075Z,99993.40
2022-11-30T00:37:36.039Z,99998.64
2022-11-30T00:37:45.951Z,99992.25
2022-11-30T00:37:56.079Z,99994.69
2022-11-30T00:38:06.013Z,99992.39
2022-11-30T00:38:15.950Z,99992.30
2022-11-30T00:38:25.982Z,99996.28
2022-11-30T00:38:35.985Z,99994.48
2022-11-30T00:38:46.049Z,99994.59
2022-11-30T00:38:55.959Z,99994.03
2022-11-30T00:39:06.017Z,99994.73
2022-11-30T00:39:16.033Z,99992.34
2022-11-30T00:39:28.704Z,99995.02
2022-11-30T00:39:36.077Z,99991.72
2022-11-30T00:39:45.985Z,99996.59
2022-11-30T00:39:55.961Z,99992.11
2022-11-30T00:40:05.976Z,99991.55
2022-11-30T00:40:16.084Z,99996.52
2022-11-30T00:40:25.959Z,99990.51
2022-11-30T00:40:35.988Z,99988.14
2022-11-30T00:40:46.056Z,99991.75
2022-11-30T00:40:56.011Z,99992.73
2022-11-30T00:41:06.074Z,99995.95
2022-11-30T00:41:16.001Z,99994.05
2022-11-30T00:41:26.025Z,99990.61
2022-11-30T00:41:35.995Z,99990.37
2022-11-30T00:41:45.980Z,99994.26
2022-11-30T00:41:56.027Z,99991.47
2022-11-30T00:42:05.988Z,99993.72
2022-11-30T00:42:15.969Z,99991.09
2022-11-30T00:42:26.037Z,99994.91
2022-11-30T00:42:35.984Z,99991.28
2022-11-30T00:42:46.078Z,99990.48
2022-11-30T00:42:56.038Z,99990.15
2022-11-30T00:43:06.025Z,99995.28
2022-11-30T00:43:15.952Z,99991.18
2022-11-30T00:43:25.986Z,99994.55
2022-11-30T00:43:35.975Z,99992.82
2022-11-30T00:43:46.065Z,99993.48
2022-11-30T00:43:56.080Z,99994.88
2022-11-30T00:44:05.990Z,99991.92
2022-11-30T00:44:15.981Z,99994.61
2022-11-30T00:44:26.077Z,99990.73
2022-11-30T00:44:36.029Z,99992.82
2022-11-30T00:44:46.273Z,99992.49
2022-11-30T00:44:55.953Z,99993.64
2022-11-30T00:45:05.961Z,99993.62
2022-11-30T00:45:16.002Z,99991.61
2022-11-30T00:45:26.044Z,99992.33
2022-11-30T00:45:36.061Z,99993.15
2022-11-30T00:45:46.048Z,99991.88
2022-11-30T00:45:56.148Z,99991.84
2022-11-30T00:46:06.104Z,99993.31
2022-11-30T00:46:16.096Z,99991.84
2022-11-30T00:46:25.999Z,99994.81
2022-11-30T00:46:36.074Z,99997.72
2022-11-30T00:46:45.962Z,99996.08
2022-11-30T00:46:55.968Z,99995.59
2022-11-30T00:47:06.016Z,99991.53
2022-11-30T00:47:16.043Z,99993.88
2022-11-30T00:47:26.021Z,99998.81
2022-11-30T00:47:36.050Z,99995.91
2022-11-30T00:47:46.083Z,99998.67
2022-11-30T00:47:56.082Z,100003.17
2022-11-30T00:48:05.966Z,100000.22
2022-11-30T00:48:15.994Z,99998.67
2022-11-30T00:48:26.062Z,99999.44
2022-11-30T00:48:35.976Z,99994.89
2022-11-30T00:48:46.093Z,100001.39
2022-11-30T00:48:55.971Z,100000.09
2022-11-30T00:49:05.959Z,99999.77
2022-11-30T00:49:15.961Z,99998.93
2022-11-30T00:49:25.986Z,99997.30
2022-11-30T00:49:36.078Z,100002.26
2022-11-30T00:49:45.962Z,100000.45
2022-11-30T00:49:56.100Z,99997.33
2022-11-30T00:50:06.043Z,99999.41
2022-11-30T00:50:16.056Z,99997.17
2022-11-30T00:50:26.060Z,99998.50
2022-11-30T00:50:35.973Z,99998.31
2022-11-30T00:50:46.085Z,100002.86
2022-11-30T00:50:55.951Z,99999.91
2022-11-30T00:51:05.976Z,100001.39
2022-11-30T00:51:16.038Z,100000.23
2022-11-30T00:51:26.034Z,99998.59
2022-11-30T00:51:36.011Z,99998.52
2022-11-30T00:51:46.024Z,99997.70
2022-11-30T00:51:55.976Z,99996.72
2022-11-30T00:52:06.034Z,99998.36
2022-11-30T00:52:15.950Z,99998.59
2022-11-30T00:52:26.025Z,99998.19
2022-11-30T00:52:35.984Z,99996.78
2022-11-30T00:52:46.080Z,99996.45
2022-11-30T00:52:55.957Z,99998.14
2022-11-30T00:53:05.967Z,99992.34
2022-11-30T00:53:16.018Z,99997.79
2022-11-30T00:53:26.089Z,99999.27
2022-11-30T00:53:35.969Z,99998.52
2022-11-30T00:53:46.033Z,99999.38
2022-11-30T00:53:56.069Z,99998.18
2022-11-30T00:54:06.040Z,99999.59
2022-11-30T00:54:16.040Z,100001.61
2022-11-30T00:54:25.995Z,99998.72
2022-11-30T00:54:36.017Z,100002.97
2022-11-30T00:54:46.272Z,100003.24
2022-11-30T00:54:55.980Z,99997.71
2022-11-30T00:55:06.045Z,99999.14
2022-11-30T00:55:16.051Z,100001.39
2022-11-30T00:55:26.002Z,100001.70
2022-11-30T00:55:36.054Z,100002.14
2022-11-30T00:55:46.082Z,100001.06
2022-11-30T00:55:55.994Z,100007.02
2022-11-30T00:56:05.996Z,100006.52
2022-11-30T00:56:16.056Z,100002.74
2022-11-30T00:56:26.015Z,100003.89
2022-11-30T00:56:36.015Z,99999.44
2022-11-30T00:56:46.007Z,99999.17
2022-11-30T00:56:56.029Z,100000.54
2022-11-30T00:57:06.084Z,100000.66
2022-11-30T00:57:16.028Z,100000.54
2022-11-30T00:57:26.063Z,100000.81
2022-11-30T00:57:35.983Z,99999.97
2022-11-30T00:57:46.044Z,99998.36
2022-11-30T00:57:56.039Z,100000.58
2022-11-30T00:58:05.967Z,99996.38
2022-11-30T00:58:16.068Z,99998.99
2022-11-30T00:58:26.067Z,99996.38
2022-11-30T00:58:36.046Z,99997.45
2022-11-30T00:58:46.047Z,99993.90
2022-11-30T00:58:56.046Z,99998.52
2022-11-30T00:59:06.020Z,99999.43
2022-11-30T00:59:16.049Z,99997.45
2022-11-30T00:59:25.996Z,99999.10
2022-11-30T00:59:36.036Z,99995.91
2022-11-30T00:59:45.948Z,99999.92
2022-11-30T00:59:56.188Z,100001.17
2022-11-30T01:00:06.006Z,100000.52
2022-11-30T01:00:16.009Z,99999.36
2022-11-30T01:00:26.000Z,99998.21
2022-11-30T01:00:36.004Z,99997.73
2022-11-30T01:00:46.080Z,100001.84
2022-11-30T01:00:56.206Z,100002.22
2022-11-30T01:01:06.029Z,99997.80
2022-11-30T01:01:16.042Z,100000.94
2022-11-30T01:01:26.032Z,100004.34
2022-11-30T01:01:36.070Z,100000.83
2022-11-30T01:01:46.099Z,100002.27
2022-11-30T01:01:56.001Z,99998.73
2022-11-30T01:02:06.111Z,100000.23
2022-11-30T01:02:16.001Z,99998.70
2022-11-30T01:02:25.994Z,100001.12
2022-11-30T01:02:36.038Z,100003.42
2022-11-30T01:02:46.095Z,99998.27
2022-11-30T01:02:55.984Z,99998.78
2022-11-30T01:03:05.979Z,99995.06
2022-11-30T01:03:15.988Z,100001.73
2022-11-30T01:03:25.965Z,99999.49
2022-11-30T01:03:36.024Z,99999.75
2022-11-30T01:03:45.968Z,100001.58
2022-11-30T01:03:56.063Z,100001.89
2022-11-30T01:04:06.070Z,100003.20
2022-11-30T01:04:16.068Z,99998.12
2022-11-30T01:04:26.048Z,100001.95
2022-11-30T01:04:36.029Z,100002.53
2022-11-30T01:04:46.562Z,99998.64
2022-11-30T01:04:56.048Z,99997.77
2022-11-30T01:05:05.976Z,100000.33
2022-11-30T01:05:15.956Z,100003.34
2022-11-30T01:05:26.063Z,100004.83
2022-11-30T01:05:35.972Z,99999.41
2022-11-30T01:05:45.969Z,99997.58
2022-11-30T01:05:56.018Z,100000.48
2022-11-30T01:06:05.983Z,100001.91
2022-11-30T01:06:16.015Z,100004.35
2022-11-30T01:06:25.972Z,100003.77
2022-11-30T01:06:36.074Z,99999.82
2022-11-30T01:06:46.052Z,100000.16
2022-11-30T01:06:56.065Z,99999.33
2022-11-30T01:07:06.033Z,99997.95
2022-11-30T01:07:16.061Z,100002.80
2022-11-30T01:07:25.998Z,100001.56
2022-11-30T01:07:36.106Z,100002.16
2022-11-30T01:07:46.151Z,99999.47
2022-11-30T01:07:56.091Z,99996.58
2022-11-30T01:08:06.008Z,99997.77
2022-11-30T01:08:16.003Z,99998.43
2022-11-30T01:08:26.036Z,99998.59
2022-11-30T01:08:36.001Z,100002.47
2022-11-30T01:08:46.086Z,100001.06
2022-11-30T01:08:55.963Z,100000.17
2022-11-30T01:09:05.979Z,99998.74
2022-11-30T01:09:16.043Z,100000.50
2022-11-30T01:09:26.061Z,100001.77
2022-11-30T01:09:36.026Z,100002.56
2022-11-30T01:09:46.042Z,100004.59
2022-11-30T01:09:56.006Z,100001.73
2022-11-30T01:10:06.009Z,100004.59
2022-11-30T01:10:15.982Z,100004.27
2022-11-30T01:10:25.974Z,100003.22
2022-11-30T01:10:35.977Z,100003.00
2022-11-30T01:10:46.056Z,100006.56
2022-11-30T01:10:56.015Z,100003.28
2022-11-30T01:11:06.062Z,99999.60
2022-11-30T01:11:16.083Z,100005.68
2022-11-30T01:11:26.076Z,100005.84
2022-11-30T01:11:36.068Z,100000.61
2022-11-30T01:11:45.948Z,100007.50
2022-11-30T01:11:56.069Z,100002.30
2022-11-30T01:12:06.050Z,100003.17
2022-11-30T01:12:15.949Z,100000.33
2022-11-30T01:12:25.975Z,100003.12
2022-11-30T01:12:35.956Z,100000.23
2022-11-30T01:12:46.014Z,100000.41
2022-11-30T01:12:56.052Z,100000.89
2022-11-30T01:13:05.968Z,100003.20
2022-11-30T01:13:15.969Z,100003.78
2022-11-30T01:13:26.069Z,100006.24
2022-11-30T01:13:36.007Z,100001.81
2022-11-30T01:13:46.005Z,100003.73
2022-11-30T01:13:56.063Z,100006.34
2022-11-30T01:14:06.080Z,100003.88
2022-11-30T01:14:16.065Z,100003.71
2022-11-30T01:14:26.040Z,100001.77
2022-11-30T01:14:36.037Z,100005.92
2022-11-30T01:14:46.354Z,100004.70
2022-11-30T01:14:56.094Z,100001.64
2022-11-30T01:15:06.009Z,100007.53
2022-11-30T01:15:16.055Z,100004.92
2022-11-30T01:15:25.974Z,100007.22
2022-11-30T01:15:36.057Z,100006.73
2022-11-30T01:15:46.122Z,100007.03
2022-11-30T01:15:56.033Z,100004.27
2022-11-30T01:16:06.065Z,100003.28
2022-11-30T01:16:16.150Z,100004.52
2022-11-30T01:16:26.075Z,100010.05
2022-11-30T01:16:36.014Z,100009.61
2022-11-30T01:16:46.059Z,100004.58
2022-11-30T01:16:56.537Z,100010.27
2022-11-30T01:17:06.041Z,100008.30
2022-11-30T01:17:16.017Z,100008.38
2022-11-30T01:17:25.956Z,100006.00
2022-11-30T01:17:35.982Z,100009.78
2022-11-30T01:17:46.056Z,100008.95
2022-11-30T01:17:56.021Z,100009.61
2022-11-30T01:18:05.978Z,100007.97
2022-11-30T01:18:16.075Z,100008.06
2022-11-30T01:18:26.088Z,100011.02
2022-11-30T01:18:36.032Z,100010.37
2022-11-30T01:18:45.993Z,100007.97
2022-11-30T01:18:56.016Z,100007.36
2022-11-30T01:19:05.959Z,100013.77
2022-11-30T01:19:15.954Z,100011.80
2022-11-30T01:19:25.991Z,100010.02
2022-11-30T01:19:35.971Z,100006.73
2022-11-30T01:19:46.069Z,100008.64
2022-11-30T01:19:56.004Z,100011.70
2022-11-30T01:20:06.049Z,100010.77
2022-11-30T01:20:16.011Z,100009.62
2022-11-30T01:20:26.028Z,100008.54
2022-11-30T01:20:36.039Z,100011.66
2022-11-30T01:20:46.076Z,100006.69
2022-11-30T01:20:56.038Z,100006.58
2022-11-30T01:21:05.973Z,100009.62
2022-11-30T01:21:15.987Z,100011.17
2022-11-30T01:21:25.989Z,100010.67
2022-11-30T01:21:36.070Z,100012.31
2022-11-30T01:21:46.008Z,100007.13
2022-11-30T01:21:55.994Z,100010.40
2022-11-30T01:22:06.085Z,100012.05
2022-11-30T01:22:15.991Z,100011.05
2022-11-30T01:22:26.034Z,100007.13
2022-11-30T01:22:36.114Z,100012.94
2022-11-30T01:22:46.083Z,100010.20
2022-11-30T01:22:56.036Z,100011.17
2022-11-30T01:23:05.983Z,100007.55
2022-11-30T01:23:16.032Z,100009.40
2022-11-30T01:23:26.004Z,100006.98
2022-11-30T01:23:36.003Z,100006.89
2022-11-30T01:23:46.010Z,100008.81
2022-11-30T01:23:56.019Z,100005.62
2022-11-30T01:24:05.959Z,100010.55
2022-11-30T01:24:16.022Z,100005.25
2022-11-30T01:24:25.997Z,100006.63
2022-11-30T01:24:36.060Z,100007.18
2022-11-30T01:24:46.325Z,100006.96
2022-11-30T01:24:55.991Z,100006.96
2022-11-30T01:25:05.978Z,100006.24
2022-11-30T01:25:16.041Z,100005.86
2022-11-30T01:25:26.048Z,100008.54
2022-11-30T01:25:36.089Z,100008.22
2022-11-30T01:25:46.033Z,100006.84
2022-11-30T01:25:56.003Z,100006.41
2022-11-30T01:26:06.009Z,100007.88
2022-11-30T01:26:16.039Z,100004.81
2022-11-30T01:26:25.998Z,100003.82
2022-11-30T01:26:35.995Z,100004.52
2022-11-30T01:26:46.027Z,100000.54
2022-11-30T01:26:56.042Z,100006.61
2022-11-30T01:27:06.031Z,100004.91
2022-11-30T01:27:15.951Z,100004.91
2022-11-30T01:27:25.951Z,100005.90
2022-11-30T01:27:36.088Z,100005.57
2022-11-30T01:27:46.081Z,100003.74
2022-11-30T01:27:56.048Z,100005.01
2022-11-30T01:28:05.999Z,100009.39
2022-11-30T01:28:15.965Z,100007.75
2022-11-30T01:28:25.987Z,100005.70
2022-11-30T01:28:35.955Z,100009.65
2022-11-30T01:28:46.034Z,100005.09
2022-11-30T01:28:55.976Z,100005.64
2022-11-30T01:29:05.983Z,100006.08
2022-11-30T01:29:15.950Z,100010.42
2022-11-30T01:29:26.049Z,100004.06
2022-11-30T01:29:36.061Z,100010.13
2022-11-30T01:29:46.026Z,100008.66
2022-11-30T01:29:55.993Z,100008.12
2022-11-30T01:30:06.019Z,100007.33
2022-11-30T01:30:16.045Z,100007.28
2022-11-30T01:30:26.068Z,100007.13
2022-11-30T01:30:36.032Z,100007.52
2022-11-30T01:30:46.189Z,100009.53
2022-11-30T01:30:56.044Z,100010.59
2022-11-30T01:31:06.134Z,100005.06
2022-11-30T01:31:16.099Z,100005.61
2022-11-30T01:31:26.140Z,100007.55
2022-11-30T01:31:36.010Z,100008.29
2022-11-30T01:31:45.998Z,100007.47
2022-11-30T01:31:56.057Z,100007.88
2022-11-30T01:32:05.992Z,100011.36
2022-11-30T01:32:16.069Z,100017.75
2022-11-30T01:32:26.069Z,100011.95
2022-11-30T01:32:36.055Z,100012.00
2022-11-30T01:32:45.971Z,100008.99
2022-11-30T01:32:56.091Z,100010.69
2022-11-30T01:33:06.045Z,100010.97
2022-11-30T01:33:15.973Z,100013.59
2022-11-30T01:33:26.020Z,100008.88
2022-11-30T01:33:35.979Z,100014.20
2022-11-30T01:33:45.999Z,100009.92
2022-11-30T01:33:56.008Z,100012.98
2022-11-30T01:34:06.000Z,100010.14
2022-11-30T01:34:15.962Z,100010.67
2022-11-30T01:34:25.983Z,100011.83
2022-11-30T01:34:36.086Z,100009.77
2022-11-30T01:34:46.419Z,100011.83
2022-11-30T01:34:56.028Z,100012.81
2022-11-30T01:35:06.036Z,100009.11
2022-11-30T01:35:16.028Z,100012.48
2022-11-30T01:35:26.093Z,100011.62
2022-11-30T01:35:36.059Z,100008.90
2022-11-30T01:35:46.012Z,100007.89
2022-11-30T01:35:56.008Z,100011.84
2022-11-30T01:36:05.996Z,100008.06
2022-11-30T01:36:16.039Z,100011.95
2022-11-30T01:36:26.019Z,100011.12
2022-11-30T01:36:35.987Z,100008.06
2022-11-30T01:36:46.029Z,100007.68
2022-11-30T01:36:55.977Z,100012.33
2022-11-30T01:37:06.056Z,100009.86
2022-11-30T01:37:16.011Z,100011.36
2022-11-30T01:37:26.003Z,100006.16
2022-11-30T01:37:35.976Z,100005.83
2022-11-30T01:37:46.000Z,100006.23
2022-11-30T01:37:56.008Z,100010.97
2022-11-30T01:38:06.053Z,100011.81
2022-11-30T01:38:16.070Z,100013.44
2022-11-30T01:38:25.984Z,100010.77
2022-11-30T01:38:35.981Z,100010.12
2022-11-30T01:38:46.014Z,100010.72
2022-11-30T01:38:55.951Z,100012.90
2022-11-30T01:39:06.051Z,100010.58
2022-11-30T01:39:16.001Z,100011.05
2022-11-30T01:39:25.965Z,100010.02
2022-11-30T01:39:36.045Z,100013.39
2022-11-30T01:39:45.968Z,100010.39
2022-11-30T01:39:56.064Z,100012.97
2022-11-30T01:40:05.986Z,100011.38
2022-11-30T01:40:16.074Z,100011.23
2022-11-30T01:40:26.046Z,100014.41
2022-11-30T01:40:36.065Z,100014.62
2022-11-30T01:40:46.062Z,100013.32
2022-11-30T01:40:56.031Z,100015.35
2022-11-30T01:41:06.045Z,100013.78
2022-11-30T01:41:16.057Z,100012.84
2022-11-30T01:41:26.047Z,100012.02
2022-11-30T01:41:36.010Z,100010.56
2022-11-30T01:41:46.013Z,100010.50
2022-11-30T01:41:56.031Z,100013.80
2022-11-30T01:42:05.991Z,100010.24
2022-11-30T01:42:16.074Z,100013.03
2022-11-30T01:42:25.995Z,100010.08
2022-11-30T01:42:36.037Z,100010.62
2022-11-30T01:42:46.010Z,100007.95
2022-11-30T01:42:56.074Z,100010.62
2022-11-30T01:43:06.073Z,100008.65
2022-11-30T01:43:15.990Z,100010.14
2022-11-30T01:43:25.986Z,100011.30
2022-11-30T01:43:35.988Z,100013.31
2022-11-30T01:43:45.972Z,100008.30
2022-11-30T01:43:55.988Z,100012.77
2022-11-30T01:44:05.951Z,100008.28
2022-11-30T01:44:19.833Z,100013.11
2022-11-30T01:44:25.964Z,100011.18
2022-11-30T01:44:36.075Z,100009.75
2022-11-30T01:44:46.237Z,100008.58
2022-11-30T01:44:56.077Z,100009.98
2022-11-30T01:45:05.994Z,100010.64
2022-11-30T01:45:16.072Z,100008.67
2022-11-30T01:45:26.042Z,100013.77
2022-11-30T01:45:36.009Z,100009.75
2022-11-30T01:45:46.053Z,100011.73
2022-11-30T01:45:56.006Z,100010.74
2022-11-30T01:46:06.075Z,100008.11
2022-11-30T01:46:16.069Z,100012.77
2022-11-30T01:46:26.070Z,100010.36
2022-11-30T01:46:36.075Z,100011.46
2022-11-30T01:46:46.066Z,100009.80
2022-11-30T01:46:56.088Z,100011.44
2022-11-30T01:47:06.048Z,100008.67
2022-11-30T01:47:16.014Z,100013.36
2022-11-30T01:47:25.979Z,100010.64
2022-11-30T01:47:35.983Z,100006.75
2022-11-30T01:47:46.076Z,100009.38
2022-11-30T01:47:55.966Z,100010.14
2022-11-30T01:48:06.037Z,100004.67
2022-11-30T01:48:16.021Z,100009.98
2022-11-30T01:48:26.057Z,100010.80
2022-11-30T01:48:36.007Z,100011.75
2022-11-30T01:48:46.037Z,100009.94
2022-11-30T01:48:56.006Z,100011.84
2022-11-30T01:49:06.044Z,100010.43
2022-11-30T01:49:16.084Z,100010.09
2022-11-30T01:49:26.063Z,100011.18
2022-11-30T01:49:35.956Z,100011.18
2022-11-30T01:49:46.059Z,100013.59
2022-11-30T01:49:56.085Z,100011.13
2022-11-30T01:50:05.998Z,100010.14
2022-11-30T01:50:16.070Z,100010.31
2022-11-30T01:50:26.070Z,100007.69
2022-11-30T01:50:35.973Z,100012.61
2022-11-30T01:50:46.005Z,100009.14
2022-11-30T01:50:56.032Z,100010.31
2022-11-30T01:51:05.999Z,100009.77
2022-11-30T01:51:16.067Z,100010.52
2022-11-30T01:51:25.999Z,100012.98
2022-11-30T01:51:35.986Z,100013.37
2022-11-30T01:51:46.057Z,100010.20
2022-11-30T01:51:55.963Z,100008.44
2022-11-30T01:52:05.978Z,100014.25
2022-11-30T01:52:16.081Z,100013.77
2022-11-30T01:52:26.028Z,100014.52
2022-11-30T01:52:36.049Z,100010.45
2022-11-30T01:52:46.000Z,100011.52
2022-11-30T01:52:56.032Z,100011.34
2022-11-30T01:53:05.993Z,100012.88
2022-11-30T01:53:15.969Z,100011.30
2022-11-30T01:53:26.071Z,100013.52
2022-11-30T01:53:35.974Z,100016.16
2022-11-30T01:53:46.069Z,100014.09
2022-11-30T01:53:56.034Z,100011.94
2022-11-30T01:54:05.972Z,100011.46
2022-11-30T01:54:15.986Z,100013.25
2022-11-30T01:54:26.043Z,100012.75
2022-11-30T01:54:36.023Z,100015.70
2022-11-30T01:54:46.468Z,100012.66
2022-11-30T01:54:56.029Z,100012.66
2022-11-30T01:55:06.051Z,100013.91
2022-11-30T01:55:15.993Z,100011.02
2022-11-30T01:55:26.069Z,100011.44
2022-11-30T01:55:35.990Z,100010.69